Terminal Aerodrome Forecast
Issued by NWS Billings, MT

Home | Current Version | Previous Version | Text Only | Print | Product List | Glossary On
Versions: 1 2 3 4 5 6 7 8 9 10 11 12 13 14 15 16 17 18 19 20 21 22 23 24 25 26 27
000
FTUS45 KBYZ 202324
TAFBIL
TAF
KBIL 202324Z 2100/2124 20010KT P6SM FEW080 BKN150 BKN200
     FM210400 22015KT P6SM BKN080
     FM211000 24020KT P6SM VCSH BKN050 OVC100
     FM211600 26020G30KT P6SM SCT050 BKN120
     FM212100 29020G30KT P6SM SCT120 BKN200=

USA.gov is the U.S. government's official web portal to all federal, state and local government web resources and services.